Time;durP1;ratioP1;P1;durP2;ratioP2;P2;SDS_P1;SDS_P2;PMS_P1;PMS_P2;Temp;Humidity;BMP_temperature;BMP_pressure;BME280_temperature;BME280_humidity;BME280_pressure;Samples;Min_cycle;Max_cycle;Signal;HPM_P1;HPM_P2
2024/02/08 00:01:19;;;;;;;77.22;47.35;;;;;;;;;;4993842;28;20045;-75
2024/02/08 00:04:23;;;;;;;75.25;46.95;;;;;;;;;;4994479;28;20046;-73
2024/02/08 00:07:27;;;;;;;79.43;48.45;;;;;;;;;;4994496;28;20049;-74
2024/02/08 00:10:32;;;;;;;83.97;51.58;;;;;;;;;;4994430;28;20046;-73
2024/02/08 00:13:36;;;;;;;79.18;49.88;;;;;;;;;;4994391;28;20182;-73
2024/02/08 00:16:41;;;;;;;80.68;50.58;;;;;;;;;;4994394;28;20062;-73
2024/02/08 00:19:45;;;;;;;83.68;50.97;;;;;;;;;;4994424;28;20057;-74
2024/02/08 00:22:52;;;;;;;90.82;55.58;;;12.10;99.90;;;;;;4994240;28;20151;-73
2024/02/08 00:25:56;;;;;;;86.82;54.47;;;;;;;;;;4994432;28;20042;-74
2024/02/08 00:29:00;;;;;;;92.90;55.75;;;12.30;99.90;;;;;;4994241;28;20426;-74
2024/02/08 00:32:04;;;;;;;85.72;55.45;;;12.40;99.90;;;;;;4994019;28;20049;-72
2024/02/08 00:35:08;;;;;;;102.47;58.40;;;12.00;99.90;;;;;;4993167;28;20053;-73
2024/02/08 00:38:12;;;;;;;87.30;55.60;;;12.10;99.90;;;;;;4994562;28;20053;-74
2024/02/08 00:41:17;;;;;;;86.32;55.22;;;;;;;;;;4994184;28;20041;-75
2024/02/08 00:44:26;;;;;;;84.60;56.85;;;;;;;;;;4992905;28;20050;-74
2024/02/08 00:47:30;;;;;;;84.55;55.03;;;;;;;;;;4994206;28;20041;-74
2024/02/08 00:50:34;;;;;;;94.65;56.83;;;;;;;;;;4993791;28;20058;-74
2024/02/08 00:53:38;;;;;;;88.70;55.78;;;;;;;;;;4993146;28;20045;-74
2024/02/08 00:56:43;;;;;;;90.10;55.88;;;;;;;;;;4993773;28;20050;-73
2024/02/08 00:59:47;;;;;;;90.18;56.20;;;;;;;;;;4992881;28;20049;-73
2024/02/08 01:02:51;;;;;;;89.03;54.83;;;11.90;99.90;;;;;;4993837;28;20398;-73
2024/02/08 01:05:56;;;;;;;86.85;55.22;;;11.80;99.90;;;;;;4993721;28;20042;-73
2024/02/08 01:08:59;;;;;;;84.85;55.15;;;11.80;99.90;;;;;;4993502;28;20049;-75
2024/02/08 01:12:04;;;;;;;88.10;57.83;;;11.80;99.90;;;;;;4993330;28;20061;-74
2024/02/08 01:15:14;;;;;;;90.15;55.95;;;;;;;;;;4993397;28;20062;-73
2024/02/08 01:18:17;;;;;;;85.93;55.47;;;11.70;99.90;;;;;;4993629;28;20402;-75
2024/02/08 01:21:22;;;;;;;84.63;54.53;;;10.50;99.90;;;;;;4992548;28;20398;-73
2024/02/08 01:24:28;;;;;;;86.20;54.13;;;11.80;99.90;;;;;;4992431;28;20046;-73
2024/02/08 01:27:32;;;;;;;81.00;53.47;;;11.90;99.90;;;;;;4981361;28;20049;-75
2024/02/08 01:30:38;;;;;;;76.45;49.72;;;11.90;99.90;;;;;;4993197;28;20501;-73
2024/02/08 01:33:44;;;;;;;79.57;51.38;;;10.00;99.90;;;;;;4993240;28;20057;-74
2024/02/08 01:36:49;;;;;;;77.15;48.22;;;12.10;99.90;;;;;;4992792;28;20049;-74
2024/02/08 01:39:53;;;;;;;78.63;48.10;;;12.20;99.90;;;;;;4993716;28;20041;-73
2024/02/08 01:42:57;;;;;;;75.55;45.92;;;12.20;99.90;;;;;;4992042;28;20073;-73
2024/02/08 01:46:02;;;;;;;73.43;44.28;;;12.00;99.90;;;;;;4993053;28;20053;-73
2024/02/08 01:49:28;;;;;;;61.92;42.70;;;12.10;99.90;;;;;;4992106;28;20057;-73
2024/02/08 01:52:33;;;;;;;53.85;34.28;;;;;;;;;;4992514;28;20041;-73
2024/02/08 01:55:39;;;;;;;45.00;28.83;;;;;;;;;;4991790;28;20053;-73
2024/02/08 01:58:45;;;;;;;46.88;25.10;;;12.10;99.90;;;;;;4992883;28;20046;-73
2024/02/08 02:02:01;;;;;;;43.53;23.33;;;12.30;99.90;;;;;;4992784;28;20053;-73
2024/02/08 02:05:05;;;;;;;33.85;22.25;;;;;;;;;;4992763;28;20045;-73
2024/02/08 02:08:11;;;;;;;37.22;21.70;;;12.40;99.90;;;;;;4992702;28;20049;-73
2024/02/08 02:11:40;;;;;;;38.80;20.33;;;12.60;99.90;;;;;;4992101;28;20057;-74
2024/02/08 02:14:44;;;;;;;37.47;22.02;;;;;;;;;;4992423;28;20065;-75
2024/02/08 02:17:49;;;;;;;33.40;23.08;;;;;;;;;;4992439;28;20053;-74
2024/02/08 02:20:54;;;;;;;31.85;20.25;;;;;;;;;;4992226;28;20041;-75
2024/02/08 02:23:58;;;;;;;35.63;20.58;;;;;;;;;;4992209;28;20041;-75
2024/02/08 02:27:06;;;;;;;32.70;19.10;;;12.60;99.90;;;;;;4992251;28;20394;-75
2024/02/08 02:30:15;;;;;;;37.72;19.83;;;12.70;99.90;;;;;;4992096;28;20407;-75
2024/02/08 02:33:20;;;;;;;37.40;19.20;;;;;;;;;;4991256;28;20049;-75
2024/02/08 02:36:24;;;;;;;36.10;19.85;;;;;;;;;;4992194;28;20058;-75
2024/02/08 02:39:31;;;;;;;38.15;19.65;;;12.80;99.90;;;;;;4992012;28;20399;-75
2024/02/08 02:42:35;;;;;;;39.38;18.83;;;;;;;;;;4991278;28;20073;-75
2024/02/08 02:45:42;;;;;;;33.75;19.15;;;13.00;99.90;;;;;;4991960;28;20045;-75
2024/02/08 02:48:46;;;;;;;32.38;20.80;;;;;;;;;;4991811;28;20049;-74
2024/02/08 02:51:52;;;;;;;36.55;19.45;;;;;;;;;;4991541;28;20041;-74
2024/02/08 02:54:56;;;;;;;31.90;19.45;;;;;;;;;;4991714;28;20053;-74
2024/02/08 02:58:00;;;;;;;44.13;17.92;;;;;;;;;;4991892;28;20042;-74
2024/02/08 03:01:05;;;;;;;34.30;17.00;;;;;;;;;;4990829;28;20069;-74
2024/02/08 03:04:09;;;;;;;31.45;17.50;;;;;;;;;;4991792;28;20042;-75
2024/02/08 03:07:14;;;;;;;38.55;17.98;;;;;;;;;;4990658;28;20037;-75
2024/02/08 03:10:22;;;;;;;31.77;17.42;;;12.80;99.90;;;;;;4991516;28;20061;-74
2024/02/08 03:13:26;;;;;;;34.40;17.08;;;;;;;;;;4991367;28;20033;-74
2024/02/08 03:16:36;;;;;;;41.85;17.25;;;;;;;;;;4991492;28;20061;-75
2024/02/08 03:19:40;;;;;;;42.53;17.55;;;;;;;;;;4979576;28;20034;-74
2024/02/08 03:22:44;;;;;;;30.80;16.73;;;12.80;99.90;;;;;;4991581;28;20045;-74
2024/02/08 03:25:49;;;;;;;37.85;16.63;;;;;;;;;;4991457;28;20061;-75
2024/02/08 03:28:54;;;;;;;39.58;15.95;;;;;;;;;;4991554;28;20041;-74
2024/02/08 03:31:58;;;;;;;35.80;15.20;;;;;;;;;;4991550;28;20038;-74
2024/02/08 03:35:05;;;;;;;34.42;14.48;;;;;;;;;;4991351;28;20057;-74
2024/02/08 03:38:09;;;;;;;31.85;15.20;;;;;;;;;;4991428;28;20037;-74
2024/02/08 03:41:13;;;;;;;30.23;13.25;;;;;;;;;;4990453;28;20122;-74
2024/02/08 03:44:21;;;;;;;31.33;12.00;;;;;;;;;;4991643;28;20050;-75
2024/02/08 03:47:26;;;;;;;25.40;11.45;;;;;;;;;;4991169;28;20042;-74
2024/02/08 03:50:33;;;;;;;38.35;11.55;;;;;;;;;;4990682;28;20054;-74
2024/02/08 03:53:38;;;;;;;30.95;11.48;;;;;;;;;;4991055;28;20422;-74
2024/02/08 03:56:49;;;;;;;25.60;9.00;;;13.00;99.90;;;;;;4991088;28;20061;-74
2024/02/08 03:59:54;;;;;;;26.33;8.45;;;;;;;;;;4990408;28;20049;-74
2024/02/08 04:02:59;;;;;;;22.05;8.40;;;;;;;;;;4991152;28;20421;-74
2024/02/08 04:06:16;;;;;;;36.22;9.23;;;13.00;99.90;;;;;;4991380;28;20050;-75
2024/02/08 04:09:33;;;;;;;19.90;8.63;;;;;;;;;;4991094;28;20041;-74
2024/02/08 04:56:34;;;;;;;29.73;7.80;;;;;;;;;;4993634;28;20054;-74
2024/02/08 04:59:42;;;;;;;36.30;8.35;;;13.00;99.90;;;;;;4994073;28;20035;-74
2024/02/08 05:02:49;;;;;;;29.83;8.45;;;;;;;;;;4993764;28;20053;-74
2024/02/08 05:05:54;;;;;;;31.92;8.68;;;;;;;;;;4992976;28;20043;-74
2024/02/08 05:08:59;;;;;;;28.55;8.95;;;;;;;;;;4993198;28;20042;-74
2024/02/08 05:12:05;;;;;;;26.08;8.57;;;;;;;;;;4994095;28;20050;-74
2024/02/08 05:15:12;;;;;;;29.75;8.35;;;;;;;;;;4981513;28;20053;-74
2024/02/08 05:18:17;;;;;;;26.35;8.32;;;;;;;;;;4993759;28;20054;-74
2024/02/08 05:21:22;;;;;;;26.95;8.95;;;;;;;;;;4993407;28;20034;-74
2024/02/08 05:24:27;;;;;;;23.88;8.50;;;;;;;;;;4993421;28;20042;-74
2024/02/08 05:27:31;;;;;;;28.75;9.85;;;;;;;;;;4993361;28;20030;-74
2024/02/08 05:30:36;;;;;;;41.70;9.85;;;;;;;;;;4992342;28;20039;-74
2024/02/08 05:33:40;;;;;;;25.65;8.32;;;;;;;;;;4993361;28;20511;-74
2024/02/08 05:36:46;;;;;;;26.88;8.13;;;;;;;;;;4992902;28;20126;-74
2024/02/08 05:39:51;;;;;;;28.55;8.77;;;;;;;;;;4993173;28;20053;-74
2024/02/08 05:42:55;;;;;;;29.70;8.85;;;;;;;;;;4992725;28;20039;-74
2024/02/08 05:46:01;;;;;;;25.45;9.32;;;;;;;;;;4993244;28;20052;-74
2024/02/08 05:49:11;;;;;;;34.25;9.18;;;12.80;99.90;;;;;;4992187;28;20038;-74
2024/02/08 05:52:16;;;;;;;42.03;11.40;;;;;;;;;;4992811;28;20049;-74
2024/02/08 05:55:20;;;;;;;53.78;11.25;;;;;;;;;;4992581;28;20517;-74
2024/02/08 05:58:27;;;;;;;33.42;9.10;;;;;;;;;;4992601;28;20046;-74
2024/02/08 06:01:36;;;;;;;47.80;10.77;;;;;;;;;;4992511;28;20391;-74
2024/02/08 06:04:41;;;;;;;50.45;12.00;;;12.50;99.90;;;;;;4992650;28;20054;-74
2024/02/08 06:07:56;;;;;;;58.17;10.65;;;;;;;;;;4992390;28;20041;-74
2024/02/08 06:11:04;;;;;;;39.33;9.57;;;;;;;;;;4992478;28;20065;-74
2024/02/08 06:14:17;;;;;;;24.25;9.10;;;;;;;;;;4992467;28;20038;-74
2024/02/08 06:17:31;;;;;;;33.00;10.85;;;12.70;99.90;;;;;;4991230;28;20420;-74
2024/02/08 06:20:40;;;;;;;36.08;11.75;;;;;;;;;;4992281;28;20065;-74
2024/02/08 06:23:45;;;;;;;32.00;11.60;;;;;;;;;;4991960;28;20057;-74
2024/02/08 06:27:01;;;;;;;35.75;11.68;;;12.20;99.90;;;;;;4991388;28;20056;-74
2024/02/08 06:30:09;;;;;;;34.15;12.57;;;;;;;;;;4992106;28;20054;-74
2024/02/08 06:33:25;;;;;;;31.15;12.23;;;12.70;99.90;;;;;;4991214;28;20374;-74
2024/02/08 06:36:30;;;;;;;35.88;12.90;;;;;;;;;;4991774;28;20077;-71
2024/02/08 06:39:44;;;;;;;50.90;15.27;;;;;;;;;;4991157;28;20045;-72
2024/02/08 06:46:39;;;;;;;50.60;15.07;;;;;;;;;;4989248;28;20045;-71
2024/02/08 07:37:38;;;;;;;42.05;15.88;;;;;;;;;;4991555;28;20077;-70
2024/02/08 07:40:43;;;;;;;49.20;17.90;;;;;;;;;;4989954;28;20473;-69
2024/02/08 07:43:55;;;;;;;46.85;16.63;;;;;;;;;;4991323;28;20422;-70
2024/02/08 07:47:03;;;;;;;42.83;17.15;;;;;;;;;;4990954;28;20049;-72
2024/02/08 07:50:09;;;;;;;48.83;17.27;;;;;;;;;;4990303;28;20355;-72
2024/02/08 07:53:35;;;;;;;50.20;16.77;;;13.30;99.90;;;;;;4992685;28;20521;-69
2024/02/08 07:56:49;;;;;;;40.10;16.10;;;;;;;;;;4994626;28;20057;-71
2024/02/08 07:59:53;;;;;;;59.28;17.60;;;;;;;;;;4994619;28;20045;-70
2024/02/08 08:02:57;;;;;;;55.92;17.73;;;;;;;;;;4994795;28;20073;-70
2024/02/08 08:06:06;;;;;;;78.13;18.45;;;;;;;;;;4995067;28;20057;-69
2024/02/08 08:09:20;;;;;;;83.47;21.52;;;;;;;;;;4993818;28;20061;-69
2024/02/08 08:12:28;;;;;;;65.88;19.17;;;;;;;;;;4992939;28;20041;-69
2024/02/08 08:16:35;;;;;;;43.08;17.42;;;13.90;99.90;;;;;;4993513;28;20167;-69
2024/02/08 08:19:19;;;;;;;70.82;20.80;;;;;;;;;;4994025;28;20053;-69
2024/02/08 08:25:28;;;;;;;41.75;15.65;;;;;;;;;;4994136;28;20049;-71
2024/02/08 08:28:40;;;;;;;31.02;14.52;;;;;;;;;;4994093;28;20045;-71
2024/02/08 08:31:51;;;;;;;54.58;15.90;;;15.40;99.90;;;;;;4993827;28;20045;-70
2024/02/08 08:38:30;;;;;;;36.75;13.48;;;;;;;;;;4993815;28;20049;-71
2024/02/08 08:41:34;;;;;;;28.17;7.55;;;;;;;;;;4994079;28;20148;-72
2024/02/08 08:44:38;;;;;;;22.17;5.97;;;;;;;;;;4993851;28;20049;-72
2024/02/08 08:47:43;;;;;;;23.15;5.97;;;;;;;;;;4993416;28;20047;-71
2024/02/08 08:50:54;;;;;;;16.67;5.85;;;16.60;99.90;;;;;;4993908;28;20042;-71
2024/02/08 08:54:14;;;;;;;10.57;4.63;;;;;;;;;;4993747;28;20049;-72
2024/02/08 08:57:24;;;;;;;13.95;6.15;;;;;;;;;;4993775;28;20049;-72
2024/02/08 09:00:32;;;;;;;18.35;6.05;;;;;;;;;;4992899;28;20050;-70
2024/02/08 09:03:39;;;;;;;12.88;5.95;;;;;;;;;;4992784;28;20050;-68
2024/02/08 09:06:47;;;;;;;11.50;4.65;;;;;;;;;;4993783;28;20647;-70
2024/02/08 09:09:54;;;;;;;13.55;5.00;;;;;;;;;;4993202;28;20219;-70
2024/02/08 09:12:59;;;;;;;18.25;5.75;;;;;;;;;;4993327;28;20038;-71
2024/02/08 09:19:31;;;;;;;9.55;4.50;;;;;;;;;;4993296;28;20038;-72
2024/02/08 09:22:39;;;;;;;15.80;4.95;;;;;;;;;;4993351;28;20038;-70
2024/02/08 09:25:47;;;;;;;35.85;6.55;;;;;;;;;;4993204;28;20379;-71
2024/02/08 09:28:52;;;;;;;14.75;5.63;;;;;;;;;;4993142;28;20046;-71
2024/02/08 09:31:58;;;;;;;15.38;4.45;;;16.90;99.70;;;;;;4993249;28;20042;-70
2024/02/08 09:35:11;;;;;;;14.75;4.50;;;16.00;99.10;;;;;;4993121;28;20371;-73
2024/02/08 09:38:18;;;;;;;16.50;5.30;;;;;;;;;;4992772;28;20054;-73
2024/02/08 09:41:25;;;;;;;13.57;4.50;;;;;;;;;;4992885;28;20038;-72
2024/02/08 09:44:30;;;;;;;12.57;4.50;;;;;;;;;;4993092;28;20042;-74
2024/02/08 09:47:35;;;;;;;18.25;4.38;;;;;;;;;;4980692;28;20042;-72
2024/02/08 09:50:53;;;;;;;11.55;4.38;;;;;;;;;;4992571;28;20037;-75
2024/02/08 09:54:15;;;;;;;15.10;5.03;;;;;;;;;;4992785;28;20038;-72
2024/02/08 09:57:22;;;;;;;20.63;5.47;;;;;;;;;;4992369;28;20065;-71
2024/02/08 10:00:35;;;;;;;17.08;4.82;;;;;;;;;;4992883;28;20047;-75
2024/02/08 10:03:41;;;;;;;25.13;5.10;;;;;;;;;;4992336;28;20419;-72
2024/02/08 10:10:03;;;;;;;18.33;5.70;;;;;;;;;;4992373;28;20053;-72
2024/02/08 10:13:14;;;;;;;29.75;6.22;;;;;;;;;;4992748;28;20034;-72
2024/02/08 10:16:29;;;;;;;13.18;4.30;;;;;;;;;;4991551;28;20527;-71
2024/02/08 10:19:47;;;;;;;16.25;4.65;;;;;;;;;;4991361;28;20045;-71
2024/02/08 10:22:58;;;;;;;17.38;4.85;;;15.40;98.50;;;;;;4992503;28;20053;-69
2024/02/08 10:26:19;;;;;;;15.90;4.63;;;;;;;;;;4992018;28;20040;-71
2024/02/08 10:29:25;;;;;;;9.93;4.60;;;;;;;;;;4991867;28;20057;-72
2024/02/08 10:32:29;;;;;;;16.95;5.50;;;;;;;;;;4990766;28;20026;-69
2024/02/08 10:35:39;;;;;;;14.65;5.03;;;;;;;;;;4991716;28;20050;-73
2024/02/08 10:38:55;;;;;;;12.35;7.45;;;;;;;;;;4991770;28;20050;-71
2024/02/08 10:42:01;;;;;;;14.40;6.45;;;16.10;98.60;;;;;;4991748;28;20043;-69
2024/02/08 10:45:06;;;;;;;19.88;5.20;;;;;;;;;;4991889;28;20049;-69
2024/02/08 10:48:14;;;;;;;18.88;4.22;;;;;;;;;;4991713;28;20053;-69
2024/02/08 10:51:25;;;;;;;14.38;4.18;;;;;;;;;;4991563;28;20035;-71
2024/02/08 10:54:42;;;;;;;23.48;5.40;;;;;;;;;;4991937;28;20506;-71
2024/02/08 10:58:21;;;;;;;12.77;4.50;;;;;;;;;;4991641;28;20057;-69
2024/02/08 11:01:33;;;;;;;21.45;4.78;;;;;;;;;;4991425;28;20042;-71
2024/02/08 11:04:41;;;;;;;14.10;4.20;;;19.30;94.60;;;;;;4991351;28;20046;-68
2024/02/08 11:07:45;;;;;;;18.88;5.10;;;;;;;;;;4991166;28;20054;-71
2024/02/08 11:10:54;;;;;;;14.90;4.53;;;19.60;93.90;;;;;;4991462;28;20390;-70
2024/02/08 11:13:59;;;;;;;14.75;3.92;;;;;;;;;;4991325;28;20050;-69
2024/02/08 11:17:05;;;;;;;11.10;3.53;;;;;;;;;;4989992;28;20073;-70
2024/02/08 11:20:16;;;;;;;15.98;4.18;;;;;;;;;;4991450;28;20240;-70
2024/02/08 11:23:23;;;;;;;14.10;4.70;;;;;;;;;;4991042;28;20057;-70
2024/02/08 11:26:28;;;;;;;19.27;4.05;;;;;;;;;;4990226;28;20054;-67
2024/02/08 11:29:45;;;;;;;11.88;3.90;;;17.30;93.10;;;;;;4994747;28;20050;-70
2024/02/08 11:33:01;;;;;;;13.63;3.72;;;18.80;93.50;;;;;;4995228;28;20057;-69
2024/02/08 11:36:13;;;;;;;11.82;3.70;;;;;;;;;;4994528;28;20053;-68
2024/02/08 11:39:26;;;;;;;12.55;3.78;;;18.40;93.80;;;;;;4994899;28;20038;-70
2024/02/08 11:42:32;;;;;;;16.25;4.57;;;;;;;;;;4995008;28;20068;-70
2024/02/08 11:45:37;;;;;;;13.93;4.53;;;18.30;93.80;;;;;;4994916;28;20394;-70
2024/02/08 11:48:41;;;;;;;20.27;4.65;;;;;;;;;;4995011;28;20383;-69
2024/02/08 11:51:45;;;;;;;14.82;4.20;;;;;;;;;;4995044;28;20039;-72
2024/02/08 11:55:20;;;;;;;11.20;4.32;;;18.70;94.40;;;;;;4995075;28;20224;-77
2024/02/08 11:58:27;;;;;;;15.95;4.10;;;;;;;;;;4995094;28;20422;-76
2024/02/08 12:01:33;;;;;;;15.13;4.60;;;;;;;;;;4994122;28;20065;-72
2024/02/08 12:04:38;;;;;;;10.77;4.35;;;;;;;;;;4994439;28;20070;-73
2024/02/08 12:07:46;;;;;;;18.38;5.53;;;;;;;;;;4994600;28;20046;-73
2024/02/08 12:10:50;;;;;;;12.75;4.40;;;;;;;;;;4993923;28;20034;-73
2024/02/08 12:13:56;;;;;;;10.20;3.90;;;;;;;;;;4994347;28;20042;-73
2024/02/08 12:17:02;;;;;;;14.27;4.40;;;;;;;;;;4994125;28;20051;-73
2024/02/08 12:20:09;;;;;;;24.08;5.85;;;18.50;94.20;;;;;;4994675;28;20038;-74
2024/02/08 12:23:16;;;;;;;15.52;4.93;;;;;;;;;;4994666;28;20049;-73
2024/02/08 12:26:23;;;;;;;11.32;4.43;;;;;;;;;;4994659;28;20039;-73
2024/02/08 12:29:29;;;;;;;17.75;5.18;;;;;;;;;;4993874;28;20053;-74
2024/02/08 12:32:34;;;;;;;16.98;4.10;;;;;;;;;;4994120;28;20041;-74
2024/02/08 12:35:40;;;;;;;13.13;4.38;;;18.60;94.20;;;;;;4994140;28;20407;-73
2024/02/08 12:38:46;;;;;;;16.92;3.95;;;;;;;;;;4993313;28;20062;-73
2024/02/08 12:41:51;;;;;;;22.33;10.90;;;17.60;93.20;;;;;;4994258;28;20047;-73
2024/02/08 12:44:56;;;;;;;22.27;4.93;;;;;;;;;;4994183;28;20114;-73
2024/02/08 12:48:04;;;;;;;8.02;3.70;;;;;;;;;;4982200;28;20395;-73
2024/02/08 12:51:13;;;;;;;10.65;3.40;;;;;;;;;;4993156;28;20046;-74
2024/02/08 12:54:17;;;;;;;10.70;4.15;;;;;;;;;;4992890;28;20038;-74
2024/02/08 12:57:23;;;;;;;7.28;3.88;;;;;;;;;;4992454;28;20050;-73
2024/02/08 13:00:37;;;;;;;16.17;4.07;;;16.70;93.80;;;;;;4992611;28;20034;-73
2024/02/08 13:03:42;;;;;;;10.00;4.10;;;;;;;;;;4993694;28;20045;-73
2024/02/08 13:06:50;;;;;;;21.33;4.47;;;15.80;93.50;;;;;;4992693;28;20042;-72
2024/02/08 13:10:14;;;;;;;10.60;3.90;;;18.10;94.10;;;;;;4993621;28;20057;-71
2024/02/08 13:13:23;;;;;;;12.30;4.32;;;;;;;;;;4993348;28;20041;-73
2024/02/08 13:16:28;;;;;;;18.25;4.95;;;;;;;;;;4992217;28;20412;-75
2024/02/08 13:19:32;;;;;;;15.65;5.00;;;;;;;;;;4993449;28;20216;-72
2024/02/08 13:22:37;;;;;;;10.48;4.63;;;;;;;;;;4992923;28;20034;-72
2024/02/08 13:25:42;;;;;;;23.48;4.40;;;;;;;;;;4992677;28;20116;-72
2024/02/08 13:28:46;;;;;;;11.98;4.05;;;;;;;;;;4993184;28;20034;-73
2024/02/08 13:31:51;;;;;;;18.65;4.75;;;;;;;;;;4992821;28;20053;-72
2024/02/08 13:35:00;;;;;;;11.52;4.85;;;;;;;;;;4991795;28;20038;-71
2024/02/08 13:38:04;;;;;;;17.50;4.20;;;;;;;;;;4992752;28;20050;-71
2024/02/08 13:41:10;;;;;;;14.13;4.68;;;;;;;;;;4992465;28;20038;-71
2024/02/08 13:44:14;;;;;;;15.68;5.00;;;;;;;;;;4992595;28;20110;-72
2024/02/08 13:47:21;;;;;;;13.13;4.20;;;;;;;;;;4992548;28;20177;-71
2024/02/08 13:50:28;;;;;;;14.68;4.20;;;;;;;;;;4991640;28;20149;-73
2024/02/08 13:53:32;;;;;;;21.73;4.85;;;;;;;;;;4992724;28;20053;-72
2024/02/08 13:56:40;;;;;;;14.90;3.85;;;;;;;;;;4992279;28;20054;-73
2024/02/08 13:59:48;;;;;;;13.85;4.18;;;;;;;;;;4991431;28;20038;-72
2024/02/08 14:02:56;;;;;;;18.67;4.65;;;17.30;94.70;;;;;;4991919;28;20410;-73
2024/02/08 14:06:00;;;;;;;13.77;4.80;;;;;;;;;;4992350;28;20049;-72
2024/02/08 14:09:19;;;;;;;25.10;5.57;;;;;;;;;;4991824;28;20095;-72
2024/02/08 14:12:25;;;;;;;21.83;3.95;;;;;;;;;;4992207;28;20034;-73
2024/02/08 14:15:29;;;;;;;15.85;4.53;;;;;;;;;;4991894;28;20045;-72
2024/02/08 14:18:35;;;;;;;21.83;4.53;;;;;;;;;;4992182;28;20406;-73
2024/02/08 14:21:40;;;;;;;17.13;4.88;;;;;;;;;;4992534;28;20049;-73
2024/02/08 14:24:51;;;;;;;11.07;4.80;;;;;;;;;;4991139;28;20043;-71
2024/02/08 14:27:55;;;;;;;15.68;4.35;;;;;;;;;;4991761;28;20152;-73
2024/02/08 14:31:03;;;;;;;13.57;4.07;;;;;;;;;;4991562;28;20368;-70
2024/02/08 14:34:08;;;;;;;14.75;4.10;;;;;;;;;;4991188;28;20061;-72
2024/02/08 14:37:12;;;;;;;17.10;4.32;;;;;;;;;;4990804;28;20533;-73
2024/02/08 14:40:17;;;;;;;16.80;4.78;;;;;;;;;;4990773;28;20031;-72
2024/02/08 14:43:31;;;;;;;12.43;4.88;;;;;;;;;;4991692;28;20042;-72
2024/02/08 14:46:39;;;;;;;22.45;4.93;;;;;;;;;;4990588;28;20057;-73
2024/02/08 14:49:58;;;;;;;19.00;4.88;;;;;;;;;;4991517;28;20478;-72
2024/02/08 14:53:04;;;;;;;13.77;4.93;;;;;;;;;;4991576;28;20038;-73
2024/02/08 14:56:08;;;;;;;15.75;4.78;;;;;;;;;;4991457;28;20061;-71
2024/02/08 14:59:13;;;;;;;14.27;4.72;;;;;;;;;;4990787;28;20069;-71
2024/02/08 15:02:21;;;;;;;13.82;4.22;;;;;;;;;;4991636;28;20073;-72
2024/02/08 15:05:40;;;;;;;19.05;4.95;;;;;;;;;;4991292;28;20046;-72
2024/02/08 15:08:54;;;;;;;29.92;5.05;;;;;;;;;;4991721;28;20049;-73
2024/02/08 15:12:27;;;;;;;18.13;5.07;;;;;;;;;;4991324;28;20032;-73
2024/02/08 15:15:33;;;;;;;19.38;4.75;;;;;;;;;;4991219;28;20073;-71
2024/02/08 15:18:47;;;;;;;34.15;5.15;;;;;;;;;;4991209;28;20050;-70
2024/02/08 15:21:52;;;;;;;19.80;4.95;;;;;;;;;;4990542;28;20053;-69
2024/02/08 15:25:03;;;;;;;18.88;4.55;;;17.00;96.60;;;;;;4991351;28;20053;-71
2024/02/08 15:28:25;;;;;;;16.48;5.30;;;;;;;;;;4990790;28;20583;-72
2024/02/08 15:31:39;;;;;;;15.43;4.55;;;;;;;;;;4989675;28;20060;-71
2024/02/08 15:34:59;;;;;;;17.48;5.13;;;17.10;96.60;;;;;;4990949;28;20042;-72
2024/02/08 15:41:41;;;;;;;16.98;3.95;;;;;;;;;;4990697;28;20038;-73
2024/02/08 15:44:52;;;;;;;16.90;4.68;;;;;;;;;;4991336;28;20053;-71
2024/02/08 15:48:00;;;;;;;22.47;6.03;;;;;;;;;;4990030;28;20506;-72
2024/02/08 15:51:12;;;;;;;24.48;5.43;;;;;;;;;;4991162;28;20277;-72
2024/02/08 15:54:23;;;;;;;;;;;16.60;96.50;;;;;;4991805;28;20042;-71
2024/02/08 15:57:29;;;;;;;28.17;5.88;;;16.50;96.60;;;;;;4990128;28;19926;-72
2024/02/08 16:01:01;;;;;;;21.88;5.57;;;;;;;;;;4990276;28;20045;-73
2024/02/08 16:03:59;;;;;;;15.20;4.70;;;;;;;;;;4990080;28;20053;-73
2024/02/08 16:07:14;;;;;;;13.27;3.80;;;;;;;;;;4989425;28;20524;-73
2024/02/08 16:10:24;;;;;;;14.68;4.95;;;;;;;;;;4989792;28;20054;-72
2024/02/08 16:13:34;;;;;;;13.45;4.57;;;;;;;;;;4991600;28;20038;-72
2024/02/08 16:16:39;;;;;;;17.17;5.50;;;;;;;;;;4982473;28;20057;-73
2024/02/08 16:19:51;;;;;;;22.17;6.78;;;;;;;;;;4994830;28;20506;-73
2024/02/08 16:23:13;;;;;;;21.08;6.50;;;;;;;;;;4993778;28;20047;-73
2024/02/08 16:26:18;;;;;;;17.20;5.55;;;;;;;;;;4994480;28;20478;-73
2024/02/08 16:29:34;;;;;;;20.27;6.65;;;;;;;;;;4994256;28;20392;-72
2024/02/08 16:32:55;;;;;;;38.65;6.13;;;;;;;;;;4993363;28;20053;-72
2024/02/08 16:36:09;;;;;;;21.05;6.32;;;15.90;98.30;;;;;;4993857;28;20038;-73
2024/02/08 16:42:18;;;;;;;23.95;6.75;;;;;;;;;;4993999;28;20045;-73
2024/02/08 16:45:34;;;;;;;18.83;6.88;;;;;;;;;;4994084;28;20043;-73
2024/02/08 16:48:44;;;;;;;26.90;7.55;;;;;;;;;;4993750;28;20034;-71
2024/02/08 16:51:49;;;;;;;33.53;9.80;;;;;;;;;;4993971;28;20057;-71
2024/02/08 16:54:59;;;;;;;29.58;9.38;;;;;;;;;;4993692;28;20046;-72
2024/02/08 16:58:17;;;;;;;35.70;10.00;;;15.80;99.60;;;;;;4993499;28;20063;-71
2024/02/08 17:01:22;;;;;;;29.45;9.75;;;;;;;;;;4993638;28;20042;-73
2024/02/08 17:04:40;;;;;;;38.03;13.27;;;;;;;;;;4993630;28;20049;-71
2024/02/08 17:11:01;;;;;;;36.90;9.73;;;15.40;99.70;;;;;;4993465;28;20042;-71
2024/02/08 17:14:08;;;;;;;35.35;12.95;;;;;;;;;;4993438;28;20041;-71
2024/02/08 17:17:24;;;;;;;32.03;11.82;;;;;;;;;;4993144;28;20065;-71
2024/02/08 17:20:40;;;;;;;43.72;12.90;;;;;;;;;;4993377;28;20514;-71
2024/02/08 17:23:59;;;;;;;28.30;11.15;;;;;;;;;;4993469;28;20045;-74
2024/02/08 17:27:18;;;;;;;35.85;12.77;;;;;;;;;;4992568;28;20041;-73
2024/02/08 17:31:01;;;;;;;36.95;15.27;;;15.20;99.70;;;;;;4992906;28;20049;-73
2024/02/08 17:34:09;;;;;;;73.68;38.00;;;;;;;;;;4992959;28;20042;-73
2024/02/08 17:37:17;;;;;;;42.00;17.40;;;;;;;;;;4991928;28;20057;-71
2024/02/08 17:40:29;;;;;;;32.60;13.68;;;;;;;;;;4993010;28;20494;-72
2024/02/08 17:43:38;;;;;;;54.78;12.45;;;;;;;;;;4980947;28;20057;-71
2024/02/08 17:46:46;;;;;;;51.30;17.65;;;;;;;;;;4992848;28;20057;-73
2024/02/08 17:49:50;;;;;;;48.25;13.02;;;;;;;;;;4991785;28;20053;-74
2024/02/08 17:52:54;;;;;;;45.13;13.80;;;;;;;;;;4978995;28;20406;-73
2024/02/08 17:56:06;;;;;;;34.45;12.50;;;;;;;;;;4990695;28;20053;-73
2024/02/08 17:59:17;;;;;;;51.13;14.38;;;;;;;;;;4989666;28;20057;-73
2024/02/08 18:02:21;;;;;;;29.38;13.00;;;;;;;;;;4990726;28;20045;-73
2024/02/08 18:05:35;;;;;;;37.33;13.60;;;;;;;;;;4991710;28;20069;-73
2024/02/08 18:08:39;;;;;;;34.88;13.20;;;;;;;;;;4980523;28;20489;-73
2024/02/08 18:11:49;;;;;;;42.45;22.02;;;14.50;99.90;;;;;;4992506;28;20057;-73
2024/02/08 18:15:10;;;;;;;40.45;17.52;;;;;;;;;;4992112;28;20049;-73
2024/02/08 18:18:15;;;;;;;51.80;19.48;;;;;;;;;;4991090;28;20089;-72
2024/02/08 18:21:21;;;;;;;45.05;18.17;;;;;;;;;;4992092;28;20371;-72
2024/02/08 18:24:26;;;;;;;43.72;18.70;;;;;;;;;;4992028;28;20497;-72
2024/02/08 18:27:31;;;;;;;51.67;21.85;;;;;;;;;;4991963;28;20044;-73
2024/02/08 18:30:37;;;;;;;40.88;21.58;;;;;;;;;;4990786;28;20043;-71
2024/02/08 18:33:45;;;;;;;51.05;24.90;;;;;;;;;;4992238;28;20046;-72
2024/02/08 18:36:50;;;;;;;52.13;26.58;;;;;;;;;;4991289;28;20053;-72
2024/02/08 18:39:55;;;;;;;68.10;27.30;;;14.80;99.90;;;;;;4991791;28;20049;-72
2024/02/08 18:43:03;;;;;;;43.92;22.23;;;;;;;;;;4979794;28;20046;-72
2024/02/08 18:46:10;;;;;;;49.67;23.98;;;;;;;;;;4991690;28;20053;-72
2024/02/08 18:49:17;;;;;;;44.60;20.58;;;;;;;;;;4991590;28;20049;-72
2024/02/08 18:52:25;;;;;;;48.88;21.10;;;;;;;;;;4991539;28;20049;-72
2024/02/08 18:55:56;;;;;;;43.20;23.58;;;;;;;;;;4991904;28;20045;-72
2024/02/08 18:59:05;;;;;;;56.33;26.42;;;;;;;;;;4991730;28;20057;-72
2024/02/08 19:02:09;;;;;;;48.40;26.25;;;;;;;;;;4990875;28;20178;-72
2024/02/08 19:05:15;;;;;;;59.35;26.80;;;;;;;;;;4990879;28;20041;-72
2024/02/08 19:08:20;;;;;;;55.55;25.52;;;;;;;;;;4991730;28;20038;-72
2024/02/08 19:11:24;;;;;;;73.50;26.52;;;;;;;;;;4991754;28;20049;-72
2024/02/08 19:14:31;;;;;;;64.70;31.48;;;;;;;;;;4991594;28;20046;-72
2024/02/08 19:17:38;;;;;;;76.95;34.80;;;;;;;;;;4990333;28;20062;-72
2024/02/08 19:20:44;;;;;;;66.60;35.38;;;;;;;;;;4991530;28;20065;-72
2024/02/08 19:23:55;;;;;;;61.83;31.02;;;;;;;;;;4990898;28;20497;-72
2024/02/08 19:27:00;;;;;;;59.70;30.88;;;;;;;;;;4990888;28;20045;-73
2024/02/08 19:30:05;;;;;;;54.22;30.42;;;;;;;;;;4991494;28;20053;-73
2024/02/08 19:33:10;;;;;;;75.90;34.83;;;;;;;;;;4991670;28;20466;-73
2024/02/08 19:36:22;;;;;;;70.30;32.75;;;13.80;99.90;;;;;;4990677;28;20061;-72
2024/02/08 19:42:31;;;;;;;52.35;30.27;;;;;;;;;;4991240;28;20049;-73
2024/02/08 19:45:35;;;;;;;57.70;33.22;;;;;;;;;;4979232;28;20053;-73
2024/02/08 19:48:41;;;;;;;59.78;31.95;;;;;;;;;;4992277;28;20061;-73
2024/02/08 19:51:45;;;;;;;60.95;33.28;;;;;;;;;;4995407;28;20049;-73
2024/02/08 19:54:49;;;;;;;58.70;33.72;;;;;;;;;;4994403;28;20141;-73